createdAt,value
2023-03-16T00:02:04.642Z,51.50
2023-03-16T00:04:31.393Z,51.20
2023-03-16T00:06:58.553Z,51.30
2023-03-16T00:09:31.313Z,51.40
2023-03-16T00:11:58.915Z,51.30
2023-03-16T00:14:25.834Z,51.40
2023-03-16T00:16:52.411Z,51.10
2023-03-16T00:19:19.007Z,51.20
2023-03-16T00:21:45.587Z,51.10
2023-03-16T00:24:12.890Z,51.20
2023-03-16T00:26:39.469Z,51.20
2023-03-16T00:29:06.026Z,51.70
2023-03-16T00:31:33.890Z,51.20
2023-03-16T00:34:02.677Z,51.10
2023-03-16T00:36:30.262Z,51.30
2023-03-16T00:38:56.814Z,51.20
2023-03-16T00:41:23.330Z,50.90
2023-03-16T00:43:51.663Z,50.90
2023-03-16T00:46:18.278Z,51.00
2023-03-16T00:48:46.084Z,51.10
2023-03-16T00:51:14.767Z,50.90
2023-03-16T00:53:43.141Z,51.00
2023-03-16T00:56:10.362Z,51.20
2023-03-16T00:58:38.143Z,50.70
2023-03-16T01:01:06.361Z,50.90
2023-03-16T01:03:33.489Z,50.90
2023-03-16T01:06:07.359Z,51.10
2023-03-16T01:08:34.050Z,51.00
2023-03-16T01:11:04.649Z,50.90
2023-03-16T01:13:32.440Z,50.70
2023-03-16T01:15:59.586Z,50.80
2023-03-16T01:18:27.201Z,50.70
2023-03-16T01:20:53.814Z,50.60
2023-03-16T01:23:20.935Z,50.50
2023-03-16T01:25:53.034Z,50.30
2023-03-16T01:28:24.594Z,50.20
2023-03-16T01:30:55.510Z,50.50
2023-03-16T01:33:22.294Z,50.70
2023-03-16T01:35:57.998Z,50.80
2023-03-16T01:38:25.028Z,50.70
2023-03-16T01:40:52.255Z,50.80
2023-03-16T01:43:19.767Z,51.00
2023-03-16T01:46:04.737Z,51.00
2023-03-16T01:48:37.316Z,50.80
2023-03-16T01:51:09.276Z,50.90
2023-03-16T01:53:36.497Z,50.90
2023-03-16T01:56:03.839Z,50.90
2023-03-16T01:58:31.442Z,50.50
2023-03-16T02:00:58.643Z,50.50
2023-03-16T02:03:25.659Z,50.40
2023-03-16T02:06:00.972Z,50.40
2023-03-16T02:08:27.730Z,50.40
2023-03-16T02:10:56.146Z,50.30
2023-03-16T02:13:24.142Z,50.50
2023-03-16T02:15:51.991Z,50.30
2023-03-16T02:18:19.128Z,50.40
2023-03-16T02:20:54.974Z,50.30
2023-03-16T02:23:23.157Z,50.10
2023-03-16T02:25:52.714Z,50.30
2023-03-16T02:28:30.891Z,50.20
2023-03-16T02:30:57.864Z,50.10
2023-03-16T02:33:25.119Z,50.20
2023-03-16T02:35:51.688Z,50.10
2023-03-16T02:38:18.275Z,50.20
2023-03-16T02:40:45.906Z,50.10
2023-03-16T02:43:20.582Z,49.90
2023-03-16T02:45:50.010Z,50.20
2023-03-16T02:48:25.087Z,50.10
2023-03-16T02:50:52.866Z,50.20
2023-03-16T02:53:19.660Z,50.10
2023-03-16T02:55:46.475Z,50.10
2023-03-16T02:58:14.131Z,50.20
2023-03-16T03:00:40.971Z,50.20
2023-03-16T03:03:09.405Z,50.10
2023-03-16T03:05:36.769Z,50.00
2023-03-16T03:08:03.742Z,50.10
2023-03-16T03:10:31.083Z,49.80
2023-03-16T03:12:57.730Z,49.80
2023-03-16T03:15:24.305Z,49.90
2023-03-16T03:17:51.336Z,49.80
2023-03-16T03:20:18.338Z,50.10
2023-03-16T03:22:46.389Z,50.20
2023-03-16T03:25:14.460Z,49.70
2023-03-16T03:27:44.635Z,49.80
2023-03-16T03:30:15.740Z,49.70
2023-03-16T03:32:44.122Z,49.80
2023-03-16T03:35:14.824Z,49.50
2023-03-16T03:37:42.433Z,49.70
2023-03-16T03:40:10.661Z,49.60
2023-03-16T03:42:37.576Z,49.50
2023-03-16T03:45:04.674Z,49.60
2023-03-16T03:47:31.626Z,49.90
2023-03-16T03:49:58.220Z,49.50
2023-03-16T03:52:24.978Z,50.20
2023-03-16T03:54:51.646Z,49.60
2023-03-16T03:57:19.869Z,49.60
2023-03-16T03:59:48.106Z,49.50
2023-03-16T04:02:14.951Z,49.60
2023-03-16T04:04:42.126Z,49.70
2023-03-16T04:07:08.783Z,49.50
2023-03-16T04:09:36.128Z,49.60
2023-03-16T04:12:04.769Z,49.50
2023-03-16T04:14:31.746Z,49.50
2023-03-16T04:16:58.376Z,49.40
2023-03-16T04:19:25.261Z,49.60
2023-03-16T04:21:52.086Z,49.60
2023-03-16T04:24:18.791Z,49.40
2023-03-16T04:26:45.683Z,49.60
2023-03-16T04:29:14.187Z,49.50
2023-03-16T04:31:42.398Z,49.20
2023-03-16T04:34:09.475Z,49.20
2023-03-16T04:36:36.030Z,49.30
2023-03-16T04:39:02.936Z,49.30
2023-03-16T04:41:29.694Z,49.80
2023-03-16T04:43:57.691Z,49.40
2023-03-16T04:46:26.406Z,49.50
2023-03-16T04:48:53.788Z,49.70
2023-03-16T04:51:21.425Z,49.80
2023-03-16T04:53:48.039Z,49.60
2023-03-16T04:56:19.482Z,49.50
2023-03-16T04:58:47.016Z,49.60
2023-03-16T05:01:14.194Z,49.50
2023-03-16T05:03:40.907Z,49.90
2023-03-16T05:06:07.548Z,49.50
2023-03-16T05:08:34.072Z,49.30
2023-03-16T05:11:00.650Z,49.20
2023-03-16T05:13:27.200Z,48.90
2023-03-16T05:15:53.934Z,49.80
2023-03-16T05:18:21.589Z,49.10
2023-03-16T05:20:55.911Z,48.90
2023-03-16T05:23:22.819Z,48.80
2023-03-16T05:25:49.661Z,48.80
2023-03-16T05:28:16.760Z,48.90
2023-03-16T05:30:44.992Z,48.70
2023-03-16T05:33:11.991Z,48.60
2023-03-16T05:35:38.801Z,48.50
2023-03-16T05:38:05.594Z,48.60
2023-03-16T05:40:33.062Z,48.50
2023-03-16T05:43:00.541Z,48.50
2023-03-16T05:45:27.227Z,48.50
2023-03-16T05:47:54.003Z,48.50
2023-03-16T05:50:20.678Z,48.30
2023-03-16T05:52:47.305Z,48.00
2023-03-16T05:55:14.764Z,48.60
2023-03-16T05:57:41.741Z,48.10
2023-03-16T06:00:16.331Z,48.10
2023-03-16T06:02:43.828Z,48.30
2023-03-16T06:05:11.145Z,48.30
2023-03-16T06:07:37.760Z,48.10
2023-03-16T06:10:05.455Z,48.20
2023-03-16T06:12:32.293Z,48.00
2023-03-16T06:14:59.009Z,48.00
2023-03-16T06:17:25.612Z,48.00
2023-03-16T06:19:52.210Z,47.80
2023-03-16T06:22:19.018Z,48.30
2023-03-16T06:24:45.633Z,48.30
2023-03-16T06:27:12.370Z,47.70
2023-03-16T06:29:38.944Z,48.20
2023-03-16T06:32:05.647Z,48.10
2023-03-16T06:34:32.210Z,47.60
2023-03-16T06:36:58.785Z,47.70
2023-03-16T06:39:25.620Z,48.00
2023-03-16T06:41:52.223Z,48.30
2023-03-16T06:44:18.869Z,48.20
2023-03-16T06:46:45.528Z,48.10
2023-03-16T06:49:12.151Z,47.80
2023-03-16T06:51:38.808Z,47.80
2023-03-16T06:54:05.518Z,48.00
2023-03-16T06:56:32.105Z,47.80
2023-03-16T06:58:58.720Z,48.00
2023-03-16T07:01:25.555Z,48.20
2023-03-16T07:03:52.197Z,48.40
2023-03-16T07:06:19.006Z,47.70
2023-03-16T07:08:46.412Z,47.90
2023-03-16T07:11:14.792Z,47.90
2023-03-16T07:13:41.548Z,47.70
2023-03-16T07:16:08.426Z,47.30
2023-03-16T07:18:37.899Z,47.60
2023-03-16T07:21:04.607Z,47.70
2023-03-16T07:23:32.252Z,47.30
2023-03-16T07:25:58.843Z,47.40
2023-03-16T07:28:25.503Z,47.40
2023-03-16T07:31:02.970Z,47.00
2023-03-16T07:33:30.438Z,47.20
2023-03-16T07:35:57.030Z,46.80
2023-03-16T07:38:23.902Z,46.60
2023-03-16T07:40:52.142Z,46.50
2023-03-16T07:43:19.325Z,46.90
2023-03-16T07:45:49.994Z,46.80
2023-03-16T07:48:17.096Z,46.40
2023-03-16T07:50:44.240Z,46.40
2023-03-16T07:53:10.805Z,46.70
2023-03-16T07:55:39.000Z,46.50
2023-03-16T07:58:06.196Z,46.90
2023-03-16T08:00:33.495Z,46.80
2023-03-16T08:03:00.630Z,46.80
2023-03-16T08:05:27.978Z,46.50
2023-03-16T08:07:56.110Z,46.00
2023-03-16T08:10:23.081Z,45.90
2023-03-16T08:12:49.760Z,46.00
2023-03-16T08:15:16.427Z,46.50
2023-03-16T08:17:43.098Z,46.70
2023-03-16T08:20:12.384Z,47.10
2023-03-16T08:22:38.992Z,47.30
2023-03-16T08:25:10.349Z,46.80
2023-03-16T08:27:41.814Z,47.50
2023-03-16T08:30:11.646Z,47.20
2023-03-16T08:32:41.957Z,47.00
2023-03-16T08:35:09.803Z,46.90
2023-03-16T08:37:36.533Z,47.50
2023-03-16T08:40:05.143Z,47.00
2023-03-16T08:42:32.503Z,47.20
2023-03-16T08:45:00.864Z,47.30
2023-03-16T08:47:27.552Z,47.10
2023-03-16T08:49:54.156Z,47.00
2023-03-16T08:52:22.715Z,47.10
2023-03-16T08:55:02.411Z,47.50
2023-03-16T08:57:30.654Z,47.60
2023-03-16T08:59:57.283Z,48.00
2023-03-16T09:02:25.023Z,47.60
2023-03-16T09:04:52.706Z,47.50
2023-03-16T09:07:19.405Z,47.20
2023-03-16T09:09:46.389Z,47.50
2023-03-16T09:12:13.583Z,47.60
2023-03-16T09:14:40.281Z,48.40
2023-03-16T09:17:11.575Z,47.90
2023-03-16T09:19:57.677Z,48.20
2023-03-16T09:22:25.634Z,47.90
2023-03-16T09:24:52.342Z,48.00
2023-03-16T09:27:19.098Z,48.50
2023-03-16T09:29:46.640Z,48.20
2023-03-16T09:32:14.176Z,48.00
2023-03-16T09:34:41.376Z,48.30
2023-03-16T09:37:08.037Z,48.20
2023-03-16T09:39:34.725Z,49.00
2023-03-16T09:42:01.275Z,48.60
2023-03-16T09:44:37.199Z,48.20
2023-03-16T09:47:04.896Z,48.50
2023-03-16T09:49:42.384Z,48.60
2023-03-16T09:52:18.430Z,48.30
2023-03-16T09:54:54.127Z,48.20
2023-03-16T09:57:28.532Z,47.90
2023-03-16T09:59:58.985Z,47.80
2023-03-16T10:02:44.569Z,47.90
2023-03-16T10:05:16.060Z,47.80
2023-03-16T10:07:48.294Z,48.00
2023-03-16T10:10:19.498Z,48.00
2023-03-16T10:12:50.311Z,47.90
2023-03-16T10:15:19.394Z,47.80
2023-03-16T10:18:06.523Z,48.40
2023-03-16T10:20:33.948Z,48.30
2023-03-16T10:23:02.181Z,48.30
2023-03-16T10:25:35.393Z,48.00
2023-03-16T10:28:02.334Z,48.20
2023-03-16T10:30:32.129Z,48.00
2023-03-16T10:33:05.316Z,47.20
2023-03-16T10:35:43.259Z,47.90
2023-03-16T10:38:25.358Z,47.90
2023-03-16T10:40:52.530Z,47.70
2023-03-16T10:43:19.248Z,47.80
2023-03-16T10:45:46.725Z,47.40
2023-03-16T10:48:14.619Z,47.40
2023-03-16T10:50:42.983Z,47.50
2023-03-16T10:53:16.466Z,47.60
2023-03-16T10:55:44.856Z,47.50
2023-03-16T10:58:22.422Z,48.50
2023-03-16T11:00:49.008Z,48.00
2023-03-16T11:03:25.854Z,48.50
2023-03-16T11:06:00.627Z,48.30
2023-03-16T11:08:27.926Z,48.00
2023-03-16T11:10:58.771Z,47.70
2023-03-16T11:13:32.864Z,47.60
2023-03-16T11:16:03.030Z,47.70
2023-03-16T11:18:36.821Z,47.60
2023-03-16T11:21:08.234Z,47.30
2023-03-16T11:23:37.423Z,47.60
2023-03-16T11:26:05.824Z,47.90
2023-03-16T11:28:35.387Z,47.40
2023-03-16T11:31:02.779Z,47.00
2023-03-16T11:33:31.105Z,47.30
2023-03-16T11:36:00.472Z,46.60
2023-03-16T11:38:50.471Z,46.80
2023-03-16T11:41:26.692Z,46.40
2023-03-16T11:43:55.429Z,46.60
2023-03-16T11:46:23.944Z,46.80
2023-03-16T11:48:50.596Z,46.70
2023-03-16T11:51:28.637Z,46.60
2023-03-16T11:54:07.872Z,46.40
2023-03-16T11:56:36.116Z,46.00
2023-03-16T11:59:14.572Z,46.70
2023-03-16T12:02:01.257Z,46.90
2023-03-16T12:04:28.263Z,45.80
2023-03-16T12:07:01.387Z,45.90
2023-03-16T12:09:31.092Z,46.20
2023-03-16T12:12:04.715Z,45.60
2023-03-16T12:14:42.688Z,46.00
2023-03-16T12:17:19.477Z,46.90
2023-03-16T12:20:05.620Z,46.40
2023-03-16T12:22:38.920Z,45.40
2023-03-16T12:25:13.143Z,46.30
2023-03-16T12:27:41.148Z,46.50
2023-03-16T12:30:10.194Z,46.30
2023-03-16T12:32:47.083Z,45.90
2023-03-16T12:35:13.694Z,46.30
2023-03-16T12:37:45.007Z,46.50
2023-03-16T12:40:27.053Z,46.30
2023-03-16T12:42:59.487Z,46.40
2023-03-16T12:45:30.242Z,46.60
2023-03-16T12:48:04.682Z,46.50
2023-03-16T12:50:31.885Z,46.70
2023-03-16T12:52:58.530Z,46.30
2023-03-16T12:55:34.548Z,46.20
2023-03-16T12:58:02.749Z,45.70
2023-03-16T13:00:52.673Z,45.80
2023-03-16T13:03:21.230Z,45.30
2023-03-16T13:05:53.064Z,44.80
2023-03-16T13:08:21.133Z,45.30
2023-03-16T13:11:07.251Z,45.30
2023-03-16T13:13:34.198Z,45.20
2023-03-16T13:16:09.433Z,45.50
2023-03-16T13:18:38.594Z,46.30
2023-03-16T13:21:19.119Z,46.30
2023-03-16T13:23:54.460Z,45.60
2023-03-16T13:26:37.913Z,44.20
2023-03-16T13:29:23.793Z,45.00
2023-03-16T13:31:51.434Z,44.90
2023-03-16T13:34:23.288Z,45.40
2023-03-16T13:36:53.214Z,44.70
2023-03-16T13:39:20.908Z,44.90
2023-03-16T13:41:59.497Z,45.20
2023-03-16T13:44:26.856Z,44.00
2023-03-16T13:46:53.891Z,44.60
2023-03-16T13:49:20.435Z,44.50
2023-03-16T13:51:48.415Z,44.30
2023-03-16T13:54:29.691Z,44.30
2023-03-16T13:57:02.884Z,44.60
2023-03-16T13:59:29.794Z,43.90
2023-03-16T14:01:58.459Z,44.30
2023-03-16T14:04:28.666Z,44.60
2023-03-16T14:07:00.134Z,44.80
2023-03-16T14:09:28.641Z,44.70
2023-03-16T14:11:56.126Z,44.60
2023-03-16T14:14:30.824Z,44.20
2023-03-16T14:17:02.870Z,44.30
2023-03-16T14:19:36.007Z,43.90
2023-03-16T14:22:06.925Z,43.70
2023-03-16T14:24:35.216Z,43.40
2023-03-16T14:27:17.185Z,43.30
2023-03-16T14:29:44.352Z,43.20
2023-03-16T14:32:30.054Z,43.70
2023-03-16T14:35:10.670Z,42.20
2023-03-16T14:37:37.249Z,40.60
2023-03-16T14:40:06.031Z,41.50
2023-03-16T14:42:33.038Z,43.60
2023-03-16T14:45:00.851Z,44.30
2023-03-16T14:47:31.917Z,46.90
2023-03-16T14:50:03.131Z,50.60
2023-03-16T14:52:34.022Z,49.00
2023-03-16T14:55:03.545Z,50.90
2023-03-16T14:57:30.624Z,50.60
2023-03-16T14:59:57.633Z,48.80
2023-03-16T15:02:28.610Z,48.50
2023-03-16T15:04:56.647Z,50.30
2023-03-16T15:07:25.229Z,47.30
2023-03-16T15:09:53.772Z,46.00
2023-03-16T15:12:21.043Z,46.30
2023-03-16T15:15:06.375Z,48.00
2023-03-16T15:17:33.225Z,47.50
2023-03-16T15:19:59.798Z,51.80
2023-03-16T15:22:30.909Z,50.10
2023-03-16T15:24:58.802Z,49.80
2023-03-16T15:27:29.052Z,47.90
2023-03-16T15:29:56.605Z,47.90
2023-03-16T15:32:23.373Z,48.60
2023-03-16T15:34:49.918Z,48.40
2023-03-16T15:37:17.249Z,49.30
2023-03-16T15:39:46.114Z,47.70
2023-03-16T15:42:14.447Z,54.00
2023-03-16T15:44:41.079Z,48.70
2023-03-16T15:47:07.731Z,48.30
2023-03-16T15:49:45.055Z,46.60
2023-03-16T15:52:22.032Z,48.60
2023-03-16T15:54:48.605Z,48.40
2023-03-16T15:57:15.148Z,49.20
2023-03-16T15:59:41.821Z,50.70
2023-03-16T16:02:26.011Z,49.10
2023-03-16T16:04:52.847Z,49.20
2023-03-16T16:07:19.602Z,52.50
2023-03-16T16:09:46.597Z,52.40
2023-03-16T16:12:14.398Z,48.00
2023-03-16T16:14:41.740Z,49.30
2023-03-16T16:17:11.814Z,52.30
2023-03-16T16:19:38.374Z,48.20
2023-03-16T16:22:05.839Z,50.30
2023-03-16T16:24:33.405Z,50.30
2023-03-16T16:26:59.983Z,52.40
2023-03-16T16:29:30.133Z,52.90
2023-03-16T16:31:56.980Z,50.10
2023-03-16T16:34:24.904Z,50.90
2023-03-16T16:36:51.922Z,50.20
2023-03-16T16:39:18.551Z,50.30
2023-03-16T16:41:45.311Z,51.40
2023-03-16T16:44:16.941Z,49.50
2023-03-16T16:46:44.125Z,51.50
2023-03-16T16:49:15.202Z,54.70
2023-03-16T16:51:42.702Z,55.90
2023-03-16T16:54:17.161Z,49.50
2023-03-16T16:56:44.628Z,48.70
2023-03-16T16:59:14.356Z,50.20
2023-03-16T17:01:41.902Z,51.90
2023-03-16T17:04:16.138Z,50.50
2023-03-16T17:06:43.214Z,51.80
2023-03-16T17:09:09.965Z,53.00
2023-03-16T17:11:37.061Z,54.60
2023-03-16T17:14:04.967Z,54.40
2023-03-16T17:16:32.816Z,55.10
2023-03-16T17:18:59.570Z,54.20
2023-03-16T17:21:28.284Z,52.60
2023-03-16T17:23:54.877Z,51.80
2023-03-16T17:26:23.394Z,50.70
2023-03-16T17:29:01.842Z,50.30
2023-03-16T17:31:35.106Z,50.90
2023-03-16T17:34:02.490Z,52.50
2023-03-16T17:36:29.287Z,51.70
2023-03-16T17:38:56.165Z,52.40
2023-03-16T17:41:24.057Z,50.10
2023-03-16T17:43:51.895Z,52.20
2023-03-16T17:46:20.287Z,52.00
2023-03-16T17:48:47.720Z,50.40
2023-03-16T17:51:14.876Z,50.10
2023-03-16T17:53:41.928Z,51.00
2023-03-16T17:56:18.932Z,54.90
2023-03-16T17:58:46.990Z,53.00
2023-03-16T18:01:13.748Z,54.90
2023-03-16T18:03:43.996Z,55.90
2023-03-16T18:06:19.362Z,58.20
2023-03-16T18:08:48.435Z,55.00
2023-03-16T18:11:27.744Z,54.90
2023-03-16T18:13:54.356Z,55.20
2023-03-16T18:16:25.294Z,56.70
2023-03-16T18:18:56.640Z,53.20
2023-03-16T18:21:24.608Z,51.00
2023-03-16T18:23:51.774Z,49.70
2023-03-16T18:26:19.069Z,49.60
2023-03-16T18:28:46.068Z,52.50
2023-03-16T18:31:22.060Z,51.30
2023-03-16T18:33:50.098Z,50.10
2023-03-16T18:36:18.450Z,48.00
2023-03-16T18:38:46.337Z,49.30
2023-03-16T18:41:15.962Z,48.60
2023-03-16T18:43:42.730Z,51.00
2023-03-16T18:46:29.259Z,52.30
2023-03-16T18:49:00.856Z,51.80
2023-03-16T18:51:28.349Z,52.70
2023-03-16T18:53:55.334Z,48.30
2023-03-16T18:56:23.377Z,51.50
2023-03-16T18:58:50.636Z,55.70
2023-03-16T19:01:30.327Z,50.60
2023-03-16T19:03:58.186Z,50.60
2023-03-16T19:06:30.883Z,49.60
2023-03-16T19:09:00.937Z,51.50
2023-03-16T19:11:27.902Z,49.20
2023-03-16T19:13:54.827Z,48.90
2023-03-16T19:16:21.747Z,48.60
2023-03-16T19:18:48.429Z,48.60
2023-03-16T19:21:19.505Z,49.50
2023-03-16T19:23:51.551Z,50.40
2023-03-16T19:26:18.997Z,52.00
2023-03-16T19:28:46.157Z,50.80
2023-03-16T19:31:26.739Z,49.60
2023-03-16T19:33:53.844Z,49.70
2023-03-16T19:36:20.635Z,49.60
2023-03-16T19:38:50.371Z,49.40
2023-03-16T19:41:19.774Z,49.80
2023-03-16T19:43:46.403Z,48.60
2023-03-16T19:46:14.422Z,49.40
2023-03-16T19:48:42.354Z,50.30
2023-03-16T19:51:16.044Z,52.50
2023-03-16T19:53:42.729Z,48.70
2023-03-16T19:56:12.542Z,49.90
2023-03-16T19:58:39.537Z,49.40
2023-03-16T20:01:13.173Z,51.00
2023-03-16T20:03:39.822Z,49.00
2023-03-16T20:06:08.565Z,49.40
2023-03-16T20:08:35.214Z,48.70
2023-03-16T20:11:02.850Z,51.60
2023-03-16T20:13:31.443Z,49.20
2023-03-16T20:15:58.085Z,46.00
2023-03-16T20:18:25.040Z,49.20
2023-03-16T20:20:52.053Z,47.40
2023-03-16T20:23:21.411Z,48.20
2023-03-16T20:25:48.600Z,48.00
2023-03-16T20:28:20.340Z,47.20
2023-03-16T20:30:47.247Z,47.30
2023-03-16T20:33:16.827Z,45.60
2023-03-16T20:35:43.454Z,46.00
2023-03-16T20:38:13.772Z,45.50
2023-03-16T20:40:41.700Z,45.10
2023-03-16T20:43:27.962Z,45.70
2023-03-16T20:45:55.769Z,45.00
2023-03-16T20:48:25.259Z,47.20
2023-03-16T20:50:52.483Z,46.70
2023-03-16T20:53:19.436Z,46.60
2023-03-16T20:55:46.280Z,46.90
2023-03-16T20:58:20.783Z,46.50
2023-03-16T21:00:50.371Z,46.90
2023-03-16T21:03:19.133Z,46.90
2023-03-16T21:05:46.064Z,48.30
2023-03-16T21:08:13.340Z,47.30
2023-03-16T21:10:40.414Z,47.80
2023-03-16T21:13:14.667Z,47.70
2023-03-16T21:15:41.257Z,46.80
2023-03-16T21:18:13.298Z,46.20
2023-03-16T21:20:40.057Z,47.60
2023-03-16T21:23:11.525Z,47.00
2023-03-16T21:25:43.722Z,46.30
2023-03-16T21:28:10.976Z,45.80
2023-03-16T21:30:39.538Z,45.50
2023-03-16T21:33:16.592Z,45.40
2023-03-16T21:35:43.284Z,45.20
2023-03-16T21:38:18.216Z,46.20
2023-03-16T21:40:45.347Z,46.50
2023-03-16T21:43:12.538Z,45.70
2023-03-16T21:45:40.091Z,44.60
2023-03-16T21:48:07.340Z,45.50
2023-03-16T21:50:35.577Z,44.80
2023-03-16T21:53:02.456Z,44.70
2023-03-16T21:55:30.025Z,44.70
2023-03-16T21:57:57.492Z,46.00
2023-03-16T22:00:29.014Z,46.50
2023-03-16T22:02:57.666Z,46.30
2023-03-16T22:05:24.321Z,44.30
2023-03-16T22:07:51.373Z,45.90
2023-03-16T22:10:18.350Z,45.60
2023-03-16T22:12:44.962Z,45.30
2023-03-16T22:15:12.422Z,45.50
2023-03-16T22:17:39.140Z,47.20
2023-03-16T22:20:15.839Z,46.80
2023-03-16T22:22:42.447Z,46.50
2023-03-16T22:25:16.174Z,45.60
2023-03-16T22:27:42.817Z,46.30
2023-03-16T22:30:17.498Z,46.00
2023-03-16T22:32:48.991Z,44.90
2023-03-16T22:35:23.384Z,44.80
2023-03-16T22:37:50.085Z,47.20
2023-03-16T22:40:17.439Z,45.00
2023-03-16T22:42:44.381Z,45.40
2023-03-16T22:45:21.377Z,46.40
2023-03-16T22:47:47.955Z,47.00
2023-03-16T22:50:16.513Z,47.00
2023-03-16T22:52:44.123Z,48.70
2023-03-16T22:55:16.192Z,47.80
2023-03-16T22:57:42.875Z,46.60
2023-03-16T23:00:11.378Z,47.00
2023-03-16T23:02:38.648Z,46.90
2023-03-16T23:05:25.529Z,45.70
2023-03-16T23:07:52.455Z,45.60
2023-03-16T23:10:20.028Z,46.50
2023-03-16T23:12:46.673Z,46.00
2023-03-16T23:15:17.984Z,45.10
2023-03-16T23:17:45.146Z,45.00
2023-03-16T23:20:17.210Z,45.80
2023-03-16T23:22:44.509Z,45.80
2023-03-16T23:25:11.090Z,45.20
2023-03-16T23:27:37.874Z,45.10
2023-03-16T23:30:14.175Z,45.10
2023-03-16T23:32:41.371Z,45.80
2023-03-16T23:35:37.311Z,46.40
2023-03-16T23:38:03.933Z,46.20
2023-03-16T23:40:30.827Z,45.60
2023-03-16T23:42:59.864Z,45.20
2023-03-16T23:45:31.760Z,45.30
2023-03-16T23:47:59.631Z,46.50
2023-03-16T23:50:28.043Z,46.30
2023-03-16T23:52:55.011Z,46.20
2023-03-16T23:55:22.043Z,45.50
2023-03-16T23:57:48.644Z,46.20
